sensor_id;sensor_type;location;lat;lon;timestamp;P1;durP1;ratioP1;P2;durP2;ratioP2
47053;SDS011;32811;52.382;5.270;2023-05-10T00:02:02;15.57;;;12.07;;
47053;SDS011;32811;52.382;5.270;2023-05-10T00:04:29;15.50;;;12.00;;
47053;SDS011;32811;52.382;5.270;2023-05-10T00:06:56;16.63;;;12.38;;
47053;SDS011;32811;52.382;5.270;2023-05-10T00:09:22;15.07;;;13.00;;
47053;SDS011;32811;52.382;5.270;2023-05-10T00:11:49;15.85;;;13.18;;
47053;SDS011;32811;52.382;5.270;2023-05-10T00:14:16;15.63;;;13.10;;
47053;SDS011;32811;52.382;5.270;2023-05-10T00:16:43;17.10;;;13.18;;
47053;SDS011;32811;52.382;5.270;2023-05-10T00:19:09;16.10;;;13.00;;
47053;SDS011;32811;52.382;5.270;2023-05-10T00:21:36;25.15;;;13.77;;
47053;SDS011;32811;52.382;5.270;2023-05-10T00:24:03;15.13;;;11.65;;
47053;SDS011;32811;52.382;5.270;2023-05-10T00:26:30;12.70;;;11.32;;
47053;SDS011;32811;52.382;5.270;2023-05-10T00:28:56;13.10;;;11.05;;
47053;SDS011;32811;52.382;5.270;2023-05-10T00:31:24;14.43;;;10.65;;
47053;SDS011;32811;52.382;5.270;2023-05-10T00:33:51;14.32;;;10.80;;
47053;SDS011;32811;52.382;5.270;2023-05-10T00:36:18;12.45;;;10.68;;
47053;SDS011;32811;52.382;5.270;2023-05-10T00:38:44;11.68;;;10.38;;
47053;SDS011;32811;52.382;5.270;2023-05-10T00:41:12;13.18;;;11.13;;
47053;SDS011;32811;52.382;5.270;2023-05-10T00:43:39;11.27;;;9.60;;
47053;SDS011;32811;52.382;5.270;2023-05-10T00:46:05;17.15;;;13.07;;
47053;SDS011;32811;52.382;5.270;2023-05-10T00:48:32;14.70;;;10.32;;
47053;SDS011;32811;52.382;5.270;2023-05-10T00:51:00;14.70;;;11.05;;
47053;SDS011;32811;52.382;5.270;2023-05-10T00:53:27;15.20;;;12.43;;
47053;SDS011;32811;52.382;5.270;2023-05-10T00:55:57;19.17;;;15.38;;
47053;SDS011;32811;52.382;5.270;2023-05-10T00:58:23;18.45;;;15.40;;
47053;SDS011;32811;52.382;5.270;2023-05-10T01:00:54;19.10;;;14.35;;
47053;SDS011;32811;52.382;5.270;2023-05-10T01:03:22;21.20;;;16.05;;
47053;SDS011;32811;52.382;5.270;2023-05-10T01:05:49;26.73;;;19.35;;
47053;SDS011;32811;52.382;5.270;2023-05-10T01:08:16;21.90;;;15.80;;
47053;SDS011;32811;52.382;5.270;2023-05-10T01:10:42;18.85;;;15.45;;
47053;SDS011;32811;52.382;5.270;2023-05-10T01:13:09;25.10;;;17.48;;
47053;SDS011;32811;52.382;5.270;2023-05-10T01:15:37;25.70;;;18.05;;
47053;SDS011;32811;52.382;5.270;2023-05-10T01:18:05;30.42;;;20.85;;
47053;SDS011;32811;52.382;5.270;2023-05-10T01:20:35;31.75;;;21.02;;
47053;SDS011;32811;52.382;5.270;2023-05-10T01:26:20;35.70;;;23.00;;
47053;SDS011;32811;52.382;5.270;2023-05-10T01:31:58;35.30;;;23.25;;
47053;SDS011;32811;52.382;5.270;2023-05-10T01:34:29;29.98;;;20.75;;
47053;SDS011;32811;52.382;5.270;2023-05-10T01:37:09;38.83;;;23.85;;
47053;SDS011;32811;52.382;5.270;2023-05-10T01:39:47;34.72;;;22.85;;
47053;SDS011;32811;52.382;5.270;2023-05-10T01:42:26;35.08;;;21.70;;
47053;SDS011;32811;52.382;5.270;2023-05-10T01:45:05;32.58;;;22.48;;
47053;SDS011;32811;52.382;5.270;2023-05-10T01:47:40;32.50;;;23.08;;
47053;SDS011;32811;52.382;5.270;2023-05-10T01:50:19;32.95;;;21.05;;
47053;SDS011;32811;52.382;5.270;2023-05-10T01:55:24;30.80;;;21.90;;
47053;SDS011;32811;52.382;5.270;2023-05-10T01:58:04;32.00;;;23.15;;
47053;SDS011;32811;52.382;5.270;2023-05-10T02:00:36;36.60;;;24.08;;
47053;SDS011;32811;52.382;5.270;2023-05-10T02:03:06;40.42;;;25.50;;
47053;SDS011;32811;52.382;5.270;2023-05-10T02:05:35;36.95;;;24.98;;
47053;SDS011;32811;52.382;5.270;2023-05-10T02:08:03;41.65;;;25.50;;
47053;SDS011;32811;52.382;5.270;2023-05-10T02:10:34;33.33;;;24.58;;
47053;SDS011;32811;52.382;5.270;2023-05-10T02:13:01;34.35;;;24.35;;
47053;SDS011;32811;52.382;5.270;2023-05-10T02:15:29;38.60;;;25.65;;
47053;SDS011;32811;52.382;5.270;2023-05-10T02:17:57;34.45;;;25.15;;
47053;SDS011;32811;52.382;5.270;2023-05-10T02:20:26;38.30;;;24.75;;
47053;SDS011;32811;52.382;5.270;2023-05-10T02:22:54;40.90;;;26.55;;
47053;SDS011;32811;52.382;5.270;2023-05-10T02:25:23;37.30;;;26.38;;
47053;SDS011;32811;52.382;5.270;2023-05-10T02:27:50;36.13;;;25.20;;
47053;SDS011;32811;52.382;5.270;2023-05-10T02:30:20;36.33;;;25.17;;
47053;SDS011;32811;52.382;5.270;2023-05-10T02:32:49;36.28;;;26.38;;
47053;SDS011;32811;52.382;5.270;2023-05-10T02:35:16;36.45;;;23.40;;
47053;SDS011;32811;52.382;5.270;2023-05-10T02:37:43;37.65;;;25.45;;
47053;SDS011;32811;52.382;5.270;2023-05-10T02:40:11;39.28;;;25.88;;
47053;SDS011;32811;52.382;5.270;2023-05-10T02:42:40;35.45;;;24.70;;
47053;SDS011;32811;52.382;5.270;2023-05-10T02:45:13;33.65;;;24.88;;
47053;SDS011;32811;52.382;5.270;2023-05-10T02:47:44;35.78;;;25.08;;
47053;SDS011;32811;52.382;5.270;2023-05-10T02:50:11;40.85;;;25.13;;
47053;SDS011;32811;52.382;5.270;2023-05-10T02:52:42;33.70;;;25.75;;
47053;SDS011;32811;52.382;5.270;2023-05-10T02:55:13;37.08;;;26.42;;
47053;SDS011;32811;52.382;5.270;2023-05-10T02:57:48;36.28;;;29.45;;
47053;SDS011;32811;52.382;5.270;2023-05-10T03:00:18;38.47;;;27.02;;
47053;SDS011;32811;52.382;5.270;2023-05-10T03:02:45;35.30;;;26.42;;
47053;SDS011;32811;52.382;5.270;2023-05-10T03:05:12;33.53;;;26.30;;
47053;SDS011;32811;52.382;5.270;2023-05-10T03:07:38;40.17;;;26.52;;
47053;SDS011;32811;52.382;5.270;2023-05-10T03:10:05;38.30;;;28.42;;
47053;SDS011;32811;52.382;5.270;2023-05-10T03:18:15;47.17;;;28.63;;
47053;SDS011;32811;52.382;5.270;2023-05-10T03:20:49;44.38;;;29.42;;
47053;SDS011;32811;52.382;5.270;2023-05-10T03:23:21;46.13;;;29.55;;
47053;SDS011;32811;52.382;5.270;2023-05-10T03:25:52;49.92;;;30.90;;
47053;SDS011;32811;52.382;5.270;2023-05-10T03:28:20;46.30;;;30.20;;
47053;SDS011;32811;52.382;5.270;2023-05-10T03:30:47;47.90;;;28.80;;
47053;SDS011;32811;52.382;5.270;2023-05-10T03:33:14;46.28;;;29.20;;
47053;SDS011;32811;52.382;5.270;2023-05-10T03:35:41;49.30;;;28.70;;
47053;SDS011;32811;52.382;5.270;2023-05-10T03:38:08;44.00;;;27.70;;
47053;SDS011;32811;52.382;5.270;2023-05-10T03:40:34;54.53;;;29.50;;
47053;SDS011;32811;52.382;5.270;2023-05-10T03:43:01;49.17;;;28.52;;
47053;SDS011;32811;52.382;5.270;2023-05-10T03:45:28;47.17;;;27.50;;
47053;SDS011;32811;52.382;5.270;2023-05-10T03:47:54;41.13;;;26.50;;
47053;SDS011;32811;52.382;5.270;2023-05-10T03:50:21;40.30;;;26.10;;
47053;SDS011;32811;52.382;5.270;2023-05-10T03:52:48;41.08;;;25.08;;
47053;SDS011;32811;52.382;5.270;2023-05-10T03:55:15;38.05;;;24.00;;
47053;SDS011;32811;52.382;5.270;2023-05-10T03:57:42;38.80;;;23.80;;
47053;SDS011;32811;52.382;5.270;2023-05-10T04:00:09;37.35;;;24.50;;
47053;SDS011;32811;52.382;5.270;2023-05-10T04:02:36;40.28;;;24.60;;
47053;SDS011;32811;52.382;5.270;2023-05-10T04:05:03;37.38;;;22.20;;
47053;SDS011;32811;52.382;5.270;2023-05-10T04:07:30;37.65;;;24.38;;
47053;SDS011;32811;52.382;5.270;2023-05-10T04:09:57;34.33;;;24.05;;
47053;SDS011;32811;52.382;5.270;2023-05-10T04:12:24;36.15;;;22.85;;
47053;SDS011;32811;52.382;5.270;2023-05-10T04:14:50;37.75;;;22.83;;
47053;SDS011;32811;52.382;5.270;2023-05-10T04:17:17;38.63;;;24.30;;
47053;SDS011;32811;52.382;5.270;2023-05-10T04:19:44;35.22;;;22.48;;
47053;SDS011;32811;52.382;5.270;2023-05-10T04:22:10;39.50;;;21.73;;
47053;SDS011;32811;52.382;5.270;2023-05-10T04:24:37;41.33;;;22.65;;
47053;SDS011;32811;52.382;5.270;2023-05-10T04:27:03;41.00;;;22.55;;
47053;SDS011;32811;52.382;5.270;2023-05-10T04:29:30;39.10;;;22.67;;
47053;SDS011;32811;52.382;5.270;2023-05-10T04:31:57;42.60;;;22.38;;
47053;SDS011;32811;52.382;5.270;2023-05-10T04:34:24;41.78;;;23.13;;
47053;SDS011;32811;52.382;5.270;2023-05-10T04:36:51;38.13;;;21.52;;
47053;SDS011;32811;52.382;5.270;2023-05-10T04:39:18;42.92;;;22.73;;
47053;SDS011;32811;52.382;5.270;2023-05-10T04:41:45;41.33;;;21.10;;
47053;SDS011;32811;52.382;5.270;2023-05-10T04:44:11;40.35;;;20.45;;
47053;SDS011;32811;52.382;5.270;2023-05-10T04:46:38;33.30;;;18.42;;
47053;SDS011;32811;52.382;5.270;2023-05-10T04:49:05;33.10;;;17.73;;
47053;SDS011;32811;52.382;5.270;2023-05-10T04:51:31;27.23;;;16.55;;
47053;SDS011;32811;52.382;5.270;2023-05-10T04:53:58;27.40;;;16.65;;
47053;SDS011;32811;52.382;5.270;2023-05-10T04:56:32;29.45;;;14.80;;
47053;SDS011;32811;52.382;5.270;2023-05-10T04:58:59;24.63;;;14.55;;
47053;SDS011;32811;52.382;5.270;2023-05-10T05:01:25;22.08;;;14.30;;
47053;SDS011;32811;52.382;5.270;2023-05-10T05:03:52;21.98;;;13.45;;
47053;SDS011;32811;52.382;5.270;2023-05-10T05:06:19;19.38;;;11.45;;
47053;SDS011;32811;52.382;5.270;2023-05-10T05:08:47;17.02;;;11.00;;
47053;SDS011;32811;52.382;5.270;2023-05-10T05:11:16;18.13;;;11.30;;
47053;SDS011;32811;52.382;5.270;2023-05-10T05:13:43;36.53;;;12.77;;
47053;SDS011;32811;52.382;5.270;2023-05-10T05:16:10;16.35;;;11.70;;
47053;SDS011;32811;52.382;5.270;2023-05-10T05:18:37;15.65;;;9.85;;
47053;SDS011;32811;52.382;5.270;2023-05-10T05:21:16;12.98;;;9.70;;
47053;SDS011;32811;52.382;5.270;2023-05-10T05:23:44;16.73;;;9.77;;
47053;SDS011;32811;52.382;5.270;2023-05-10T05:26:11;13.75;;;9.82;;
47053;SDS011;32811;52.382;5.270;2023-05-10T05:28:38;15.10;;;8.73;;
47053;SDS011;32811;52.382;5.270;2023-05-10T05:31:05;10.38;;;7.57;;
47053;SDS011;32811;52.382;5.270;2023-05-10T05:33:32;10.60;;;8.13;;
47053;SDS011;32811;52.382;5.270;2023-05-10T05:36:01;12.38;;;7.95;;
47053;SDS011;32811;52.382;5.270;2023-05-10T05:38:30;14.02;;;8.60;;
47053;SDS011;32811;52.382;5.270;2023-05-10T05:40:56;14.43;;;9.07;;
47053;SDS011;32811;52.382;5.270;2023-05-10T05:43:24;11.93;;;9.52;;
47053;SDS011;32811;52.382;5.270;2023-05-10T05:45:53;14.13;;;9.80;;
47053;SDS011;32811;52.382;5.270;2023-05-10T05:48:20;17.17;;;10.07;;
47053;SDS011;32811;52.382;5.270;2023-05-10T05:50:47;12.68;;;9.05;;
47053;SDS011;32811;52.382;5.270;2023-05-10T05:53:13;15.10;;;10.18;;
47053;SDS011;32811;52.382;5.270;2023-05-10T05:55:40;13.57;;;9.45;;
47053;SDS011;32811;52.382;5.270;2023-05-10T05:58:07;17.42;;;9.32;;
47053;SDS011;32811;52.382;5.270;2023-05-10T06:00:33;13.52;;;9.00;;
47053;SDS011;32811;52.382;5.270;2023-05-10T06:03:00;16.25;;;10.27;;
47053;SDS011;32811;52.382;5.270;2023-05-10T06:05:27;17.23;;;11.48;;
47053;SDS011;32811;52.382;5.270;2023-05-10T06:07:53;14.60;;;9.05;;
47053;SDS011;32811;52.382;5.270;2023-05-10T06:10:20;13.38;;;8.55;;
47053;SDS011;32811;52.382;5.270;2023-05-10T06:12:46;17.88;;;9.10;;
47053;SDS011;32811;52.382;5.270;2023-05-10T06:15:13;15.18;;;9.27;;
47053;SDS011;32811;52.382;5.270;2023-05-10T06:17:40;11.68;;;8.15;;
47053;SDS011;32811;52.382;5.270;2023-05-10T06:20:07;13.13;;;9.27;;
47053;SDS011;32811;52.382;5.270;2023-05-10T06:22:34;14.25;;;8.55;;
47053;SDS011;32811;52.382;5.270;2023-05-10T06:25:00;11.52;;;7.72;;
47053;SDS011;32811;52.382;5.270;2023-05-10T06:27:28;11.10;;;8.40;;
47053;SDS011;32811;52.382;5.270;2023-05-10T06:29:54;10.20;;;7.82;;
47053;SDS011;32811;52.382;5.270;2023-05-10T06:32:30;11.73;;;8.55;;
47053;SDS011;32811;52.382;5.270;2023-05-10T06:34:57;12.48;;;8.50;;
47053;SDS011;32811;52.382;5.270;2023-05-10T06:37:24;12.75;;;8.93;;
47053;SDS011;32811;52.382;5.270;2023-05-10T06:39:51;10.02;;;8.02;;
47053;SDS011;32811;52.382;5.270;2023-05-10T06:42:17;13.63;;;8.73;;
47053;SDS011;32811;52.382;5.270;2023-05-10T06:44:44;11.70;;;8.90;;
47053;SDS011;32811;52.382;5.270;2023-05-10T06:47:10;18.42;;;9.52;;
47053;SDS011;32811;52.382;5.270;2023-05-10T06:49:37;13.57;;;9.38;;
47053;SDS011;32811;52.382;5.270;2023-05-10T06:52:04;14.30;;;9.40;;
47053;SDS011;32811;52.382;5.270;2023-05-10T06:54:30;10.95;;;8.18;;
47053;SDS011;32811;52.382;5.270;2023-05-10T06:56:57;12.10;;;8.82;;
47053;SDS011;32811;52.382;5.270;2023-05-10T06:59:23;10.85;;;8.45;;
47053;SDS011;32811;52.382;5.270;2023-05-10T07:01:50;12.25;;;8.30;;
47053;SDS011;32811;52.382;5.270;2023-05-10T07:04:17;15.80;;;9.82;;
47053;SDS011;32811;52.382;5.270;2023-05-10T07:06:44;12.00;;;8.35;;
47053;SDS011;32811;52.382;5.270;2023-05-10T07:09:12;13.75;;;8.23;;
47053;SDS011;32811;52.382;5.270;2023-05-10T07:11:39;13.63;;;8.90;;
47053;SDS011;32811;52.382;5.270;2023-05-10T07:14:06;14.73;;;8.75;;
47053;SDS011;32811;52.382;5.270;2023-05-10T07:16:32;10.98;;;8.18;;
47053;SDS011;32811;52.382;5.270;2023-05-10T07:18:59;12.43;;;6.72;;
47053;SDS011;32811;52.382;5.270;2023-05-10T07:21:26;9.38;;;6.90;;
47053;SDS011;32811;52.382;5.270;2023-05-10T07:23:54;11.07;;;6.57;;
47053;SDS011;32811;52.382;5.270;2023-05-10T07:26:21;9.98;;;6.72;;
47053;SDS011;32811;52.382;5.270;2023-05-10T07:28:48;8.80;;;6.63;;
47053;SDS011;32811;52.382;5.270;2023-05-10T07:31:14;9.02;;;6.55;;
47053;SDS011;32811;52.382;5.270;2023-05-10T07:33:41;9.50;;;6.50;;
47053;SDS011;32811;52.382;5.270;2023-05-10T07:36:07;7.65;;;5.63;;
47053;SDS011;32811;52.382;5.270;2023-05-10T07:38:34;10.35;;;6.07;;
47053;SDS011;32811;52.382;5.270;2023-05-10T07:41:01;7.07;;;5.47;;
47053;SDS011;32811;52.382;5.270;2023-05-10T07:43:27;8.73;;;5.53;;
47053;SDS011;32811;52.382;5.270;2023-05-10T07:45:54;6.13;;;5.03;;
47053;SDS011;32811;52.382;5.270;2023-05-10T07:48:21;5.82;;;5.13;;
47053;SDS011;32811;52.382;5.270;2023-05-10T07:50:48;7.53;;;5.43;;
47053;SDS011;32811;52.382;5.270;2023-05-10T07:53:14;7.93;;;5.03;;
47053;SDS011;32811;52.382;5.270;2023-05-10T07:55:41;6.80;;;5.20;;
47053;SDS011;32811;52.382;5.270;2023-05-10T07:58:07;7.18;;;5.82;;
47053;SDS011;32811;52.382;5.270;2023-05-10T08:00:34;6.80;;;5.88;;
47053;SDS011;32811;52.382;5.270;2023-05-10T08:03:01;6.25;;;5.05;;
47053;SDS011;32811;52.382;5.270;2023-05-10T08:05:27;5.32;;;4.38;;
47053;SDS011;32811;52.382;5.270;2023-05-10T08:07:54;5.75;;;4.47;;
47053;SDS011;32811;52.382;5.270;2023-05-10T08:10:21;4.68;;;4.22;;
47053;SDS011;32811;52.382;5.270;2023-05-10T08:12:47;6.43;;;4.80;;
47053;SDS011;32811;52.382;5.270;2023-05-10T08:15:14;6.82;;;5.00;;
47053;SDS011;32811;52.382;5.270;2023-05-10T08:17:41;7.43;;;6.07;;
47053;SDS011;32811;52.382;5.270;2023-05-10T08:20:07;9.38;;;4.93;;
47053;SDS011;32811;52.382;5.270;2023-05-10T08:22:34;5.80;;;5.05;;
47053;SDS011;32811;52.382;5.270;2023-05-10T08:25:01;7.45;;;5.55;;
47053;SDS011;32811;52.382;5.270;2023-05-10T08:27:27;12.25;;;6.13;;
47053;SDS011;32811;52.382;5.270;2023-05-10T08:29:54;8.30;;;5.50;;
47053;SDS011;32811;52.382;5.270;2023-05-10T08:32:21;7.43;;;6.10;;
47053;SDS011;32811;52.382;5.270;2023-05-10T08:34:47;7.85;;;5.95;;
47053;SDS011;32811;52.382;5.270;2023-05-10T08:37:14;7.47;;;6.13;;
47053;SDS011;32811;52.382;5.270;2023-05-10T08:39:40;9.30;;;5.82;;
47053;SDS011;32811;52.382;5.270;2023-05-10T08:42:08;7.35;;;5.93;;
47053;SDS011;32811;52.382;5.270;2023-05-10T08:44:36;9.10;;;6.28;;
47053;SDS011;32811;52.382;5.270;2023-05-10T08:47:06;8.75;;;6.53;;
47053;SDS011;32811;52.382;5.270;2023-05-10T08:49:33;9.85;;;6.97;;
47053;SDS011;32811;52.382;5.270;2023-05-10T08:52:04;10.00;;;5.85;;
47053;SDS011;32811;52.382;5.270;2023-05-10T08:54:33;11.40;;;6.05;;
47053;SDS011;32811;52.382;5.270;2023-05-10T08:57:00;7.72;;;5.50;;
47053;SDS011;32811;52.382;5.270;2023-05-10T08:59:27;9.65;;;6.00;;
47053;SDS011;32811;52.382;5.270;2023-05-10T09:01:55;6.88;;;4.78;;
47053;SDS011;32811;52.382;5.270;2023-05-10T09:04:24;5.28;;;4.15;;
47053;SDS011;32811;52.382;5.270;2023-05-10T09:06:51;8.18;;;5.53;;
47053;SDS011;32811;52.382;5.270;2023-05-10T09:09:18;15.88;;;6.35;;
47053;SDS011;32811;52.382;5.270;2023-05-10T09:11:46;7.05;;;6.00;;
47053;SDS011;32811;52.382;5.270;2023-05-10T09:14:14;9.15;;;6.65;;
47053;SDS011;32811;52.382;5.270;2023-05-10T09:16:41;9.50;;;7.43;;
47053;SDS011;32811;52.382;5.270;2023-05-10T09:19:08;7.25;;;6.28;;
47053;SDS011;32811;52.382;5.270;2023-05-10T09:21:35;13.57;;;7.13;;
47053;SDS011;32811;52.382;5.270;2023-05-10T09:24:07;7.00;;;5.70;;
47053;SDS011;32811;52.382;5.270;2023-05-10T09:26:35;12.52;;;6.55;;
47053;SDS011;32811;52.382;5.270;2023-05-10T09:29:11;7.03;;;5.93;;
47053;SDS011;32811;52.382;5.270;2023-05-10T09:31:46;7.18;;;5.18;;
47053;SDS011;32811;52.382;5.270;2023-05-10T09:34:20;9.73;;;5.93;;
47053;SDS011;32811;52.382;5.270;2023-05-10T09:36:55;8.23;;;5.80;;
47053;SDS011;32811;52.382;5.270;2023-05-10T09:39:31;11.95;;;5.75;;
47053;SDS011;32811;52.382;5.270;2023-05-10T09:42:03;8.27;;;5.75;;
47053;SDS011;32811;52.382;5.270;2023-05-10T09:44:32;10.00;;;6.85;;
47053;SDS011;32811;52.382;5.270;2023-05-10T09:46:59;10.73;;;8.15;;
47053;SDS011;32811;52.382;5.270;2023-05-10T09:49:29;7.70;;;6.75;;
47053;SDS011;32811;52.382;5.270;2023-05-10T09:52:03;9.25;;;6.38;;
47053;SDS011;32811;52.382;5.270;2023-05-10T09:54:31;8.38;;;7.53;;
47053;SDS011;32811;52.382;5.270;2023-05-10T09:57:00;10.45;;;6.97;;
47053;SDS011;32811;52.382;5.270;2023-05-10T09:59:27;10.30;;;7.82;;
47053;SDS011;32811;52.382;5.270;2023-05-10T10:01:58;9.35;;;7.70;;
47053;SDS011;32811;52.382;5.270;2023-05-10T10:04:26;8.85;;;7.95;;
47053;SDS011;32811;52.382;5.270;2023-05-10T10:07:03;16.10;;;8.60;;
47053;SDS011;32811;52.382;5.270;2023-05-10T10:09:30;7.90;;;7.03;;
47053;SDS011;32811;52.382;5.270;2023-05-10T10:12:01;9.20;;;7.75;;
47053;SDS011;32811;52.382;5.270;2023-05-10T10:14:29;12.63;;;8.23;;
47053;SDS011;32811;52.382;5.270;2023-05-10T10:16:56;10.65;;;8.23;;
47053;SDS011;32811;52.382;5.270;2023-05-10T10:19:34;9.65;;;7.22;;
47053;SDS011;32811;52.382;5.270;2023-05-10T10:22:02;11.77;;;6.68;;
47053;SDS011;32811;52.382;5.270;2023-05-10T10:24:29;8.15;;;6.70;;
47053;SDS011;32811;52.382;5.270;2023-05-10T10:26:57;9.55;;;7.22;;
47053;SDS011;32811;52.382;5.270;2023-05-10T10:29:34;9.10;;;6.60;;
47053;SDS011;32811;52.382;5.270;2023-05-10T10:35:15;9.32;;;5.75;;
47053;SDS011;32811;52.382;5.270;2023-05-10T10:37:46;6.63;;;5.40;;
47053;SDS011;32811;52.382;5.270;2023-05-10T10:42:53;5.45;;;4.70;;
47053;SDS011;32811;52.382;5.270;2023-05-10T10:45:21;5.60;;;4.95;;
47053;SDS011;32811;52.382;5.270;2023-05-10T10:47:48;4.40;;;4.03;;
47053;SDS011;32811;52.382;5.270;2023-05-10T10:50:16;8.35;;;4.00;;
47053;SDS011;32811;52.382;5.270;2023-05-10T10:52:43;8.07;;;3.72;;
47053;SDS011;32811;52.382;5.270;2023-05-10T11:05:47;5.45;;;3.85;;
47053;SDS011;32811;52.382;5.270;2023-05-10T11:08:28;4.70;;;4.03;;
47053;SDS011;32811;52.382;5.270;2023-05-10T11:13:38;9.02;;;4.25;;
47053;SDS011;32811;52.382;5.270;2023-05-10T11:18:52;4.40;;;3.33;;
47053;SDS011;32811;52.382;5.270;2023-05-10T11:21:20;6.13;;;3.67;;
47053;SDS011;32811;52.382;5.270;2023-05-10T11:26:14;6.85;;;3.72;;
47053;SDS011;32811;52.382;5.270;2023-05-10T11:28:43;4.68;;;3.38;;
47053;SDS011;32811;52.382;5.270;2023-05-10T11:31:14;5.88;;;3.10;;
47053;SDS011;32811;52.382;5.270;2023-05-10T11:33:46;4.93;;;2.80;;
47053;SDS011;32811;52.382;5.270;2023-05-10T11:36:14;7.78;;;2.88;;
47053;SDS011;32811;52.382;5.270;2023-05-10T11:38:43;4.60;;;2.60;;
47053;SDS011;32811;52.382;5.270;2023-05-10T11:41:10;6.53;;;4.25;;
47053;SDS011;32811;52.382;5.270;2023-05-10T11:43:38;4.00;;;3.53;;
47053;SDS011;32811;52.382;5.270;2023-05-10T11:46:06;5.15;;;3.67;;
47053;SDS011;32811;52.382;5.270;2023-05-10T11:48:34;4.55;;;2.97;;
47053;SDS011;32811;52.382;5.270;2023-05-10T11:51:01;4.75;;;2.70;;
47053;SDS011;32811;52.382;5.270;2023-05-10T11:53:31;5.72;;;3.55;;
47053;SDS011;32811;52.382;5.270;2023-05-10T11:56:08;5.78;;;3.47;;
47053;SDS011;32811;52.382;5.270;2023-05-10T11:58:36;6.20;;;3.80;;
47053;SDS011;32811;52.382;5.270;2023-05-10T12:01:05;7.05;;;3.80;;
47053;SDS011;32811;52.382;5.270;2023-05-10T12:03:32;6.28;;;3.97;;
47053;SDS011;32811;52.382;5.270;2023-05-10T12:06:01;7.22;;;3.88;;
47053;SDS011;32811;52.382;5.270;2023-05-10T12:08:28;4.72;;;3.70;;
47053;SDS011;32811;52.382;5.270;2023-05-10T12:11:05;7.38;;;5.60;;
47053;SDS011;32811;52.382;5.270;2023-05-10T12:13:37;8.00;;;5.50;;
47053;SDS011;32811;52.382;5.270;2023-05-10T12:16:20;14.63;;;5.17;;
47053;SDS011;32811;52.382;5.270;2023-05-10T12:18:51;11.00;;;7.05;;
47053;SDS011;32811;52.382;5.270;2023-05-10T12:21:19;10.10;;;6.25;;
47053;SDS011;32811;52.382;5.270;2023-05-10T12:23:48;10.07;;;5.68;;
47053;SDS011;32811;52.382;5.270;2023-05-10T12:26:16;10.23;;;6.38;;
47053;SDS011;32811;52.382;5.270;2023-05-10T12:28:43;10.90;;;6.93;;
47053;SDS011;32811;52.382;5.270;2023-05-10T12:31:10;11.07;;;6.75;;
47053;SDS011;32811;52.382;5.270;2023-05-10T12:33:38;10.18;;;7.38;;
47053;SDS011;32811;52.382;5.270;2023-05-10T12:36:14;7.55;;;5.32;;
47053;SDS011;32811;52.382;5.270;2023-05-10T12:38:42;7.25;;;5.07;;
47053;SDS011;32811;52.382;5.270;2023-05-10T12:41:15;8.32;;;4.78;;
47053;SDS011;32811;52.382;5.270;2023-05-10T12:43:43;11.77;;;5.13;;
47053;SDS011;32811;52.382;5.270;2023-05-10T12:46:12;4.95;;;4.15;;
47053;SDS011;32811;52.382;5.270;2023-05-10T12:48:41;5.07;;;3.75;;
47053;SDS011;32811;52.382;5.270;2023-05-10T12:51:09;5.65;;;3.83;;
47053;SDS011;32811;52.382;5.270;2023-05-10T12:53:38;10.32;;;5.15;;
47053;SDS011;32811;52.382;5.270;2023-05-10T12:56:09;8.77;;;3.72;;
47053;SDS011;32811;52.382;5.270;2023-05-10T12:58:36;6.80;;;3.10;;
47053;SDS011;32811;52.382;5.270;2023-05-10T13:01:02;8.43;;;2.03;;
47053;SDS011;32811;52.382;5.270;2023-05-10T13:03:30;5.43;;;2.25;;
47053;SDS011;32811;52.382;5.270;2023-05-10T13:05:57;5.15;;;2.45;;
47053;SDS011;32811;52.382;5.270;2023-05-10T13:08:23;4.05;;;1.83;;
47053;SDS011;32811;52.382;5.270;2023-05-10T13:10:50;2.20;;;2.00;;
47053;SDS011;32811;52.382;5.270;2023-05-10T13:13:16;2.95;;;1.55;;
47053;SDS011;32811;52.382;5.270;2023-05-10T13:15:44;6.47;;;2.10;;
47053;SDS011;32811;52.382;5.270;2023-05-10T13:18:11;4.32;;;2.03;;
47053;SDS011;32811;52.382;5.270;2023-05-10T13:20:37;2.72;;;1.98;;
47053;SDS011;32811;52.382;5.270;2023-05-10T13:23:04;5.18;;;2.75;;
47053;SDS011;32811;52.382;5.270;2023-05-10T13:25:31;3.67;;;2.45;;
47053;SDS011;32811;52.382;5.270;2023-05-10T13:27:57;4.03;;;2.60;;
47053;SDS011;32811;52.382;5.270;2023-05-10T13:30:24;7.03;;;3.20;;
47053;SDS011;32811;52.382;5.270;2023-05-10T13:32:51;4.95;;;3.08;;
47053;SDS011;32811;52.382;5.270;2023-05-10T13:35:18;8.13;;;4.70;;
47053;SDS011;32811;52.382;5.270;2023-05-10T13:37:44;7.05;;;5.00;;
47053;SDS011;32811;52.382;5.270;2023-05-10T13:40:11;8.65;;;5.40;;
47053;SDS011;32811;52.382;5.270;2023-05-10T13:42:38;7.80;;;5.45;;
47053;SDS011;32811;52.382;5.270;2023-05-10T13:45:04;9.05;;;5.72;;
47053;SDS011;32811;52.382;5.270;2023-05-10T13:47:32;9.00;;;5.45;;
47053;SDS011;32811;52.382;5.270;2023-05-10T13:49:58;7.03;;;4.10;;
47053;SDS011;32811;52.382;5.270;2023-05-10T13:52:25;4.78;;;3.67;;
47053;SDS011;32811;52.382;5.270;2023-05-10T13:54:52;5.47;;;3.90;;
47053;SDS011;32811;52.382;5.270;2023-05-10T13:57:21;6.03;;;3.80;;
47053;SDS011;32811;52.382;5.270;2023-05-10T13:59:48;5.38;;;3.50;;
47053;SDS011;32811;52.382;5.270;2023-05-10T14:02:15;4.40;;;3.03;;
47053;SDS011;32811;52.382;5.270;2023-05-10T14:04:41;4.93;;;3.70;;
47053;SDS011;32811;52.382;5.270;2023-05-10T14:07:11;5.50;;;3.95;;
47053;SDS011;32811;52.382;5.270;2023-05-10T14:09:38;8.00;;;4.07;;
47053;SDS011;32811;52.382;5.270;2023-05-10T14:12:04;6.63;;;3.85;;
47053;SDS011;32811;52.382;5.270;2023-05-10T14:14:31;5.88;;;4.03;;
47053;SDS011;32811;52.382;5.270;2023-05-10T14:16:57;6.68;;;4.50;;
47053;SDS011;32811;52.382;5.270;2023-05-10T14:19:25;5.75;;;4.30;;
47053;SDS011;32811;52.382;5.270;2023-05-10T14:21:53;6.93;;;4.30;;
47053;SDS011;32811;52.382;5.270;2023-05-10T14:24:19;7.03;;;3.80;;
47053;SDS011;32811;52.382;5.270;2023-05-10T14:26:46;7.53;;;3.80;;
47053;SDS011;32811;52.382;5.270;2023-05-10T14:29:13;10.90;;;4.80;;
47053;SDS011;32811;52.382;5.270;2023-05-10T14:31:39;7.45;;;4.80;;
47053;SDS011;32811;52.382;5.270;2023-05-10T14:34:06;5.45;;;3.78;;
47053;SDS011;32811;52.382;5.270;2023-05-10T14:36:33;7.55;;;4.82;;
47053;SDS011;32811;52.382;5.270;2023-05-10T14:38:59;6.50;;;3.97;;
47053;SDS011;32811;52.382;5.270;2023-05-10T14:41:26;4.45;;;3.47;;
47053;SDS011;32811;52.382;5.270;2023-05-10T14:43:53;7.22;;;3.30;;
47053;SDS011;32811;52.382;5.270;2023-05-10T14:46:19;4.97;;;3.33;;
47053;SDS011;32811;52.382;5.270;2023-05-10T14:48:46;7.15;;;3.55;;
47053;SDS011;32811;52.382;5.270;2023-05-10T14:51:12;6.72;;;3.65;;
47053;SDS011;32811;52.382;5.270;2023-05-10T14:53:39;6.80;;;4.70;;
47053;SDS011;32811;52.382;5.270;2023-05-10T14:56:06;8.57;;;5.20;;
47053;SDS011;32811;52.382;5.270;2023-05-10T14:58:33;11.05;;;6.60;;
47053;SDS011;32811;52.382;5.270;2023-05-10T15:01:00;6.85;;;6.15;;
47053;SDS011;32811;52.382;5.270;2023-05-10T15:03:27;12.23;;;6.32;;
47053;SDS011;32811;52.382;5.270;2023-05-10T15:05:55;9.35;;;6.90;;
47053;SDS011;32811;52.382;5.270;2023-05-10T15:08:23;11.45;;;6.78;;
47053;SDS011;32811;52.382;5.270;2023-05-10T15:10:54;15.82;;;8.38;;
47053;SDS011;32811;52.382;5.270;2023-05-10T15:13:22;13.02;;;6.85;;
47053;SDS011;32811;52.382;5.270;2023-05-10T15:15:48;13.00;;;8.02;;
47053;SDS011;32811;52.382;5.270;2023-05-10T15:18:15;10.80;;;7.43;;
47053;SDS011;32811;52.382;5.270;2023-05-10T15:20:42;9.55;;;7.25;;